createdAt,value
2018-09-17T00:05:18.033Z,8.22
2018-09-17T00:09:19.432Z,7.81
2018-09-17T00:11:20.732Z,8.01
2018-09-17T00:15:23.754Z,8.3
2018-09-17T00:21:28.182Z,8.33
2018-09-17T00:25:28.955Z,8.17
2018-09-17T00:31:29.875Z,7.5
2018-09-17T00:35:30.633Z,7.32
2018-09-17T00:37:31.363Z,7.75
2018-09-17T00:41:32.255Z,7.52
2018-09-17T00:47:33.169Z,8.41
2018-09-17T00:51:33.952Z,7.47
2018-09-17T00:57:34.692Z,8.09
2018-09-17T01:03:35.418Z,7.84
2018-09-17T01:07:36.186Z,8.3
2018-09-17T01:13:36.864Z,8.21
2018-09-17T01:17:37.695Z,7.65
2018-09-17T01:23:38.513Z,7.99
2018-09-17T01:29:39.182Z,8.12
2018-09-17T01:33:39.886Z,8.3
2018-09-17T01:39:40.700Z,8.59
2018-09-17T01:43:41.478Z,8.62
2018-09-17T01:45:42.211Z,8.21
2018-09-17T01:49:42.988Z,7.83
2018-09-17T01:55:43.778Z,8.41
2018-09-17T01:59:44.476Z,7.74
2018-09-17T02:05:45.317Z,8.59
2018-09-17T02:11:46.073Z,8.04
2018-09-17T02:15:46.849Z,7.88
2018-09-17T02:21:47.760Z,8.14
2018-09-17T02:25:48.546Z,7.69
2018-09-17T02:27:49.208Z,8.68
2018-09-17T02:31:49.945Z,8.03
2018-09-17T02:37:50.721Z,8.58
2018-09-17T02:41:51.482Z,8.49
2018-09-17T02:47:52.350Z,8.24
2018-09-17T02:51:53.118Z,7.5
2018-09-17T02:53:53.849Z,8.42
2018-09-17T02:57:54.598Z,8.49
2018-09-17T03:03:55.389Z,8.5
2018-09-17T03:07:56.226Z,8.16
2018-09-17T03:13:57.019Z,8.29
2018-09-17T03:19:57.802Z,8.87
2018-09-17T03:23:58.593Z,8.26
2018-09-17T03:29:59.381Z,8.92
2018-09-17T03:34:00.236Z,7.97
2018-09-17T03:36:01.080Z,8.52
2018-09-17T03:40:01.989Z,8.15
2018-09-17T03:46:02.663Z,8.88
2018-09-17T03:50:03.402Z,8.02
2018-09-17T03:56:04.110Z,7.94
2018-09-17T04:02:04.799Z,8.35
2018-09-17T04:06:05.741Z,8.63
2018-09-17T04:12:06.628Z,8.76
2018-09-17T04:16:07.544Z,7.84
2018-09-17T04:22:08.446Z,8.46
2018-09-17T04:28:09.177Z,7.74
2018-09-17T04:32:09.928Z,7.75
2018-09-17T04:38:10.640Z,9.02
2018-09-17T04:42:11.824Z,8.27
2018-09-17T04:44:12.625Z,8.36
2018-09-17T04:48:13.256Z,8.15
2018-09-17T04:54:14.024Z,9.59
2018-09-17T04:58:14.699Z,8.63
2018-09-17T05:04:15.595Z,9.11
2018-09-17T05:10:16.360Z,8.68
2018-09-17T05:14:17.204Z,8.41
2018-09-17T05:20:18.114Z,8.83
2018-09-17T05:24:18.923Z,8.48
2018-09-17T05:26:19.650Z,8.75
2018-09-17T05:30:20.695Z,8.42
2018-09-17T05:36:21.457Z,8.25
2018-09-17T05:40:22.222Z,8.28
2018-09-17T05:46:23.289Z,8.21
2018-09-17T05:50:24.018Z,8.06
2018-09-17T05:52:24.708Z,8.39
2018-09-17T05:56:25.517Z,7.6
2018-09-17T06:02:26.261Z,8.3
2018-09-17T06:06:27.059Z,8.56
2018-09-17T06:12:27.786Z,7.94
2018-09-17T06:18:28.691Z,9.5
2018-09-17T06:22:29.959Z,8.77
2018-09-17T06:28:30.837Z,8.96
2018-09-17T06:32:31.712Z,8.69
2018-09-17T06:34:32.358Z,9.05
2018-09-17T06:38:33.189Z,8.23
2018-09-17T06:44:34.045Z,9.1
2018-09-17T06:48:34.843Z,8.81
2018-09-17T06:54:35.818Z,9.56
2018-09-17T07:00:36.798Z,10.76
2018-09-17T07:04:37.554Z,10.37
2018-09-17T07:10:38.408Z,10.19
2018-09-17T07:14:39.215Z,9.97
2018-09-17T07:20:39.959Z,8.65
2018-09-17T07:26:40.717Z,10
2018-09-17T07:30:41.721Z,9.48
2018-09-17T07:36:42.549Z,10.97
2018-09-17T07:40:43.338Z,10.84
2018-09-17T07:42:44.076Z,16.72
2018-09-17T07:46:44.813Z,19.77
2018-09-17T07:52:45.653Z,17.49
2018-09-17T07:56:46.336Z,16.35
2018-09-17T08:02:47.068Z,13.2
2018-09-17T08:08:48.669Z,13.48
2018-09-17T08:12:49.510Z,14.01
2018-09-17T08:18:50.423Z,9.47
2018-09-17T08:22:51.272Z,8.79
2018-09-17T08:24:51.970Z,9.03
2018-09-17T08:28:52.942Z,9.42
2018-09-17T08:34:53.712Z,10.08
2018-09-17T08:38:54.362Z,10.13
2018-09-17T08:44:55.230Z,10.44
2018-09-17T08:48:56.044Z,9.95
2018-09-17T08:50:56.740Z,10.25
2018-09-17T08:54:57.502Z,10.04
2018-09-17T09:00:58.216Z,10.04
2018-09-17T09:04:59.057Z,8.98
2018-09-17T09:10:59.945Z,10.18
2018-09-17T09:17:00.759Z,12.54
2018-09-17T09:21:01.496Z,12.35
2018-09-17T09:27:02.334Z,11.33
2018-09-17T09:31:03.393Z,10.95
2018-09-17T09:33:10.170Z,10.86
2018-09-17T09:37:10.873Z,12.22
2018-09-17T09:43:11.658Z,21.28
2018-09-17T09:47:12.460Z,18.84
2018-09-17T09:53:13.361Z,11.66
2018-09-17T09:57:14.301Z,11.84
2018-09-17T09:59:15.059Z,10.79
2018-09-17T10:03:16.032Z,10.49
2018-09-17T10:09:16.892Z,9.95
2018-09-17T10:13:17.648Z,10.35
2018-09-17T10:19:18.615Z,11.55
2018-09-17T10:25:19.429Z,11.04
2018-09-17T10:29:20.121Z,10.19
2018-09-17T10:35:26.315Z,10.77
2018-09-17T10:39:26.653Z,10.39
2018-09-17T10:41:27.256Z,11.29
2018-09-17T10:51:30.500Z,11.86
2018-09-17T10:51:30.690Z,11.27
2018-09-17T10:55:33.623Z,11.45
2018-09-17T11:01:36.164Z,11.23
2018-09-17T11:05:40.021Z,10.46
2018-09-17T11:07:40.619Z,11.86
2018-09-17T11:11:41.476Z,11.28
2018-09-17T11:17:42.169Z,11.55
2018-09-17T11:21:42.770Z,11.28
2018-09-17T11:27:43.548Z,10.02
2018-09-17T11:31:44.258Z,9.32
2018-09-17T11:33:44.969Z,8.81
2018-09-17T11:37:45.768Z,8.8
2018-09-17T11:43:46.459Z,7.51
2018-09-17T11:47:47.233Z,7.15
2018-09-17T11:53:48.023Z,8.27
2018-09-17T11:59:49.041Z,8.68
2018-09-17T12:03:51.102Z,8.74
2018-09-17T12:09:51.855Z,6.84
2018-09-17T12:13:52.601Z,6.49
2018-09-17T12:15:53.359Z,5.73
2018-09-17T12:19:54.166Z,5.81
2018-09-17T12:25:54.877Z,7
2018-09-17T12:29:55.796Z,6.48
2018-09-17T12:35:56.599Z,6.75
2018-09-17T12:41:57.634Z,6.01
2018-09-17T12:45:58.420Z,5.96
2018-09-17T12:51:59.057Z,6.31
2018-09-17T12:55:59.853Z,5.58
2018-09-17T12:58:00.540Z,6.16
2018-09-17T13:02:01.384Z,5.43
2018-09-17T13:08:02.223Z,5.82
2018-09-17T13:12:02.957Z,5.16
2018-09-17T13:18:03.802Z,6.35
2018-09-17T13:22:04.496Z,5.97
2018-09-17T13:24:05.190Z,6.72
2018-09-17T13:28:05.870Z,6.57
2018-09-17T13:34:06.758Z,6.73
2018-09-17T13:34:06.760Z,6.73
2018-09-17T13:38:07.571Z,6.58
2018-09-17T13:44:08.241Z,6
2018-09-17T13:50:09.345Z,6.01
2018-09-17T13:54:10.073Z,6.3
2018-09-17T14:00:11.017Z,6.07
2018-09-17T14:04:11.896Z,6.11
2018-09-17T14:06:12.522Z,6.51
2018-09-17T14:10:13.446Z,6.1
2018-09-17T14:16:14.148Z,6.47
2018-09-17T14:20:14.933Z,5.8
2018-09-17T14:26:16.098Z,6.27
2018-09-17T14:32:16.781Z,6.46
2018-09-17T14:36:17.551Z,6.97
2018-09-17T14:42:18.383Z,6.87
2018-09-17T14:46:19.312Z,7
2018-09-17T14:48:20.118Z,7.19
2018-09-17T14:52:23.025Z,6.8
2018-09-17T14:58:23.843Z,6.64
2018-09-17T15:02:24.488Z,5.97
2018-09-17T15:08:25.670Z,6.47
2018-09-17T15:12:26.353Z,6.67
2018-09-17T15:14:27.098Z,6.68
2018-09-17T15:18:27.722Z,6.01
2018-09-17T15:24:28.459Z,6.3
2018-09-17T15:28:29.407Z,6.44
2018-09-17T15:34:30.057Z,5.57
2018-09-17T15:40:30.855Z,5.31
2018-09-17T15:44:31.492Z,6.14
2018-09-17T15:50:32.264Z,5.68
2018-09-17T15:54:33.102Z,5.03
2018-09-17T15:56:33.895Z,7.7
2018-09-17T16:00:34.748Z,7.45
2018-09-17T16:06:35.509Z,5.91
2018-09-17T16:10:36.246Z,5.46
2018-09-17T16:16:37.004Z,5.76
2018-09-17T16:22:37.748Z,7.25
2018-09-17T16:26:38.690Z,7.8
2018-09-17T16:32:39.524Z,6.31
2018-09-17T16:36:41.353Z,6.77
2018-09-17T16:38:42.118Z,6.61
2018-09-17T16:42:42.904Z,6.27
2018-09-17T16:48:48.558Z,6.6
2018-09-17T16:52:50.120Z,6.79
2018-09-17T16:58:50.984Z,6.69
2018-09-17T17:02:51.771Z,6.83
2018-09-17T17:04:52.590Z,6.54
2018-09-17T17:08:53.342Z,6.45
2018-09-17T17:14:54.040Z,8.65
2018-09-17T17:18:54.904Z,8.13
2018-09-17T17:24:55.486Z,8.26
2018-09-17T17:28:56.243Z,8.58
2018-09-17T17:30:56.955Z,9.08
2018-09-17T17:34:57.715Z,8.3
2018-09-17T17:40:58.629Z,8.5
2018-09-17T17:44:59.462Z,8.3
2018-09-17T17:51:00.228Z,11.18
2018-09-17T17:55:00.979Z,10.37
2018-09-17T17:57:01.951Z,8.57
2018-09-17T18:01:02.819Z,8.63
2018-09-17T18:07:03.510Z,10.48
2018-09-17T18:11:04.305Z,9.21
2018-09-17T18:17:05.083Z,7.28
2018-09-17T18:23:05.874Z,7
2018-09-17T18:27:06.691Z,7.06
2018-09-17T18:33:07.428Z,6.92
2018-09-17T18:37:08.185Z,6.61
2018-09-17T18:43:09.033Z,6.68
2018-09-17T18:49:09.900Z,5.91
2018-09-17T18:53:10.672Z,6.22
2018-09-17T18:59:11.415Z,5.52
2018-09-17T19:03:12.245Z,5.37
2018-09-17T19:09:13.129Z,5.69
2018-09-17T19:15:14.577Z,5.31
2018-09-17T19:19:15.367Z,5.16
2018-09-17T19:25:16.384Z,5.32
2018-09-17T19:29:17.134Z,5.15
2018-09-17T19:35:17.963Z,5.53
2018-09-17T19:41:20.728Z,5.92
2018-09-17T19:51:25.282Z,5.88
2018-09-17T19:51:25.342Z,4.93
2018-09-17T19:55:26.201Z,5.14
2018-09-17T20:01:27.238Z,6.45
2018-09-17T20:07:27.952Z,6.21
2018-09-17T20:11:29.617Z,5.77
2018-09-17T20:17:32.261Z,5.44
2018-09-17T20:21:35.694Z,5.04
2018-09-17T20:27:36.719Z,5.17
2018-09-17T20:33:38.734Z,5.71
2018-09-17T20:38:12.734Z,5.11
2018-09-17T20:42:13.820Z,4.72
2018-09-17T20:44:14.755Z,4.79
2018-09-17T20:48:15.571Z,4.65
2018-09-17T20:54:16.457Z,5.73
2018-09-17T20:58:17.214Z,5.48
2018-09-17T21:04:17.994Z,5.94
2018-09-17T21:08:18.763Z,6.11
2018-09-17T21:10:19.517Z,6.63
2018-09-17T21:14:20.538Z,6.03
2018-09-17T21:20:21.272Z,6.74
2018-09-17T21:24:22.044Z,5.82
2018-09-17T21:30:23.313Z,6.12
2018-09-17T21:34:24.249Z,5.52
2018-09-17T21:36:24.898Z,6.02
2018-09-17T21:40:25.719Z,5.71
2018-09-17T21:46:26.429Z,5.9
2018-09-17T21:50:27.099Z,5.52
2018-09-17T21:56:28.103Z,5.76
2018-09-17T22:00:29.348Z,5.89
2018-09-17T22:02:30.108Z,5.99
2018-09-17T22:06:30.828Z,5.73
2018-09-17T22:12:31.501Z,6.1
2018-09-17T22:16:32.277Z,6.14
2018-09-17T22:22:33.073Z,5.66
2018-09-17T22:26:33.939Z,5.55
2018-09-17T22:28:34.662Z,6.11
2018-09-17T22:32:35.309Z,5.33
2018-09-17T22:38:36.062Z,5.05
2018-09-17T22:42:36.851Z,4.78
2018-09-17T22:48:37.570Z,4.96
2018-09-17T22:54:38.286Z,5.48
2018-09-17T22:58:39.007Z,5.69
2018-09-17T23:04:39.717Z,5.41
2018-09-17T23:08:40.504Z,4.99
2018-09-17T23:14:41.223Z,6
2018-09-17T23:20:41.988Z,6.23
2018-09-17T23:24:42.781Z,5.54
2018-09-17T23:30:43.499Z,5.43
2018-09-17T23:34:44.293Z,5.52
2018-09-17T23:40:45.045Z,5.17
2018-09-17T23:46:45.875Z,5.85
2018-09-17T23:50:46.613Z,4.96
2018-09-17T23:56:47.390Z,5.84
